Silver Lake, New Jersey
Current Conditions -  °F | °C
As of 5:53 AM on Monday 20 Oct 2014 (Local Time) from KFWN Reporting Station
Clear Clear  
Wind Chill:   Ceiling: Unl
Heat Index:   Visibility: 10mi
Dew Point: -2°   Wind: 0mph
Humidity: 88%   Direction: NA
Pressure: 30.08"   Gusts: NA
Location:  41.1122°N, 74.4998°W
Report Text: KFWN 200953Z AUTO 00000KT 10SM CLR 00/M02 A3008 RMK AO2 SLP188 T00001017
Loading
Personal Weather Stations






























Interactive Weather Map
Tropical Storm Tracking
New forecast layout! Learn more

10-Day Weather Forecast

Advertisements
Track Severe Weather on mobile